sensor_id;sensor_type;location;lat;lon;timestamp;P1;durP1;ratioP1;P2;durP2;ratioP2
80637;SDS011;69991;51.760;19.528;2024-03-08T00:00:45;29.80;;;12.50;;
80637;SDS011;69991;51.760;19.528;2024-03-08T00:03:43;28.70;;;12.50;;
80637;SDS011;69991;51.760;19.528;2024-03-08T00:06:12;33.60;;;14.30;;
80637;SDS011;69991;51.760;19.528;2024-03-08T00:08:41;43.70;;;18.50;;
80637;SDS011;69991;51.760;19.528;2024-03-08T00:11:10;50.70;;;21.00;;
80637;SDS011;69991;51.760;19.528;2024-03-08T00:13:39;49.10;;;21.10;;
80637;SDS011;69991;51.760;19.528;2024-03-08T00:16:08;43.90;;;17.80;;
80637;SDS011;69991;51.760;19.528;2024-03-08T00:18:38;39.10;;;17.50;;
80637;SDS011;69991;51.760;19.528;2024-03-08T00:21:07;37.90;;;15.90;;
80637;SDS011;69991;51.760;19.528;2024-03-08T00:23:38;40.70;;;16.70;;
80637;SDS011;69991;51.760;19.528;2024-03-08T00:26:08;36.60;;;15.50;;
80637;SDS011;69991;51.760;19.528;2024-03-08T00:28:38;34.60;;;15.50;;
80637;SDS011;69991;51.760;19.528;2024-03-08T00:31:07;31.60;;;13.80;;
80637;SDS011;69991;51.760;19.528;2024-03-08T00:33:37;37.50;;;14.60;;
80637;SDS011;69991;51.760;19.528;2024-03-08T00:36:08;32.70;;;14.20;;
80637;SDS011;69991;51.760;19.528;2024-03-08T00:38:37;34.10;;;14.50;;
80637;SDS011;69991;51.760;19.528;2024-03-08T00:41:06;34.70;;;13.80;;
80637;SDS011;69991;51.760;19.528;2024-03-08T00:43:36;32.00;;;12.60;;
80637;SDS011;69991;51.760;19.528;2024-03-08T00:46:05;30.80;;;12.00;;
80637;SDS011;69991;51.760;19.528;2024-03-08T00:48:34;28.60;;;12.00;;
80637;SDS011;69991;51.760;19.528;2024-03-08T00:51:03;31.00;;;11.80;;
80637;SDS011;69991;51.760;19.528;2024-03-08T00:53:33;28.00;;;12.20;;
80637;SDS011;69991;51.760;19.528;2024-03-08T00:56:02;26.10;;;11.50;;
80637;SDS011;69991;51.760;19.528;2024-03-08T00:58:33;26.80;;;11.00;;
80637;SDS011;69991;51.760;19.528;2024-03-08T01:01:02;25.50;;;10.80;;
80637;SDS011;69991;51.760;19.528;2024-03-08T01:03:31;34.30;;;15.20;;
80637;SDS011;69991;51.760;19.528;2024-03-08T01:06:00;44.20;;;17.90;;
80637;SDS011;69991;51.760;19.528;2024-03-08T01:08:30;39.70;;;17.00;;
80637;SDS011;69991;51.760;19.528;2024-03-08T01:11:00;33.20;;;14.80;;
80637;SDS011;69991;51.760;19.528;2024-03-08T01:13:29;35.00;;;15.50;;
80637;SDS011;69991;51.760;19.528;2024-03-08T01:15:58;30.70;;;13.80;;
80637;SDS011;69991;51.760;19.528;2024-03-08T01:18:28;32.00;;;13.90;;
80637;SDS011;69991;51.760;19.528;2024-03-08T01:20:58;31.20;;;14.80;;
80637;SDS011;69991;51.760;19.528;2024-03-08T01:23:27;29.10;;;12.00;;
80637;SDS011;69991;51.760;19.528;2024-03-08T01:25:56;27.20;;;12.20;;
80637;SDS011;69991;51.760;19.528;2024-03-08T01:28:28;26.50;;;12.20;;
80637;SDS011;69991;51.760;19.528;2024-03-08T01:30:57;26.20;;;12.00;;
80637;SDS011;69991;51.760;19.528;2024-03-08T01:33:26;23.30;;;11.10;;
80637;SDS011;69991;51.760;19.528;2024-03-08T01:35:56;24.90;;;11.00;;
80637;SDS011;69991;51.760;19.528;2024-03-08T01:38:25;22.60;;;10.10;;
80637;SDS011;69991;51.760;19.528;2024-03-08T01:40:54;27.60;;;11.80;;
80637;SDS011;69991;51.760;19.528;2024-03-08T01:43:27;24.50;;;10.40;;
80637;SDS011;69991;51.760;19.528;2024-03-08T01:45:57;21.60;;;9.30;;
80637;SDS011;69991;51.760;19.528;2024-03-08T01:48:30;21.40;;;9.40;;
80637;SDS011;69991;51.760;19.528;2024-03-08T01:50:59;21.20;;;9.10;;
80637;SDS011;69991;51.760;19.528;2024-03-08T01:53:29;19.90;;;9.30;;
80637;SDS011;69991;51.760;19.528;2024-03-08T01:55:59;21.40;;;9.40;;
80637;SDS011;69991;51.760;19.528;2024-03-08T01:58:29;32.50;;;13.50;;
80637;SDS011;69991;51.760;19.528;2024-03-08T02:00:58;30.20;;;13.80;;
80637;SDS011;69991;51.760;19.528;2024-03-08T02:03:28;29.60;;;13.00;;
80637;SDS011;69991;51.760;19.528;2024-03-08T02:05:59;24.30;;;11.70;;
80637;SDS011;69991;51.760;19.528;2024-03-08T02:08:28;25.90;;;11.30;;
80637;SDS011;69991;51.760;19.528;2024-03-08T02:10:58;23.50;;;10.70;;
80637;SDS011;69991;51.760;19.528;2024-03-08T02:13:27;25.40;;;11.00;;
80637;SDS011;69991;51.760;19.528;2024-03-08T02:15:57;22.30;;;10.50;;
80637;SDS011;69991;51.760;19.528;2024-03-08T02:18:30;22.80;;;10.00;;
80637;SDS011;69991;51.760;19.528;2024-03-08T02:21:03;23.10;;;9.60;;
80637;SDS011;69991;51.760;19.528;2024-03-08T02:23:33;21.00;;;8.60;;
80637;SDS011;69991;51.760;19.528;2024-03-08T02:26:09;18.60;;;8.60;;
80637;SDS011;69991;51.760;19.528;2024-03-08T02:28:38;19.20;;;9.20;;
80637;SDS011;69991;51.760;19.528;2024-03-08T02:31:07;19.90;;;8.60;;
80637;SDS011;69991;51.760;19.528;2024-03-08T02:33:36;22.80;;;10.00;;
80637;SDS011;69991;51.760;19.528;2024-03-08T02:36:06;16.90;;;7.20;;
80637;SDS011;69991;51.760;19.528;2024-03-08T02:38:35;18.80;;;7.90;;
80637;SDS011;69991;51.760;19.528;2024-03-08T02:41:04;18.00;;;7.50;;
80637;SDS011;69991;51.760;19.528;2024-03-08T02:43:33;16.90;;;7.30;;
80637;SDS011;69991;51.760;19.528;2024-03-08T02:46:03;19.20;;;8.40;;
80637;SDS011;69991;51.760;19.528;2024-03-08T02:48:34;26.70;;;11.30;;
80637;SDS011;69991;51.760;19.528;2024-03-08T02:51:05;24.20;;;11.80;;
80637;SDS011;69991;51.760;19.528;2024-03-08T02:53:34;27.90;;;11.10;;
80637;SDS011;69991;51.760;19.528;2024-03-08T02:56:04;22.00;;;10.60;;
80637;SDS011;69991;51.760;19.528;2024-03-08T02:58:37;23.30;;;10.20;;
80637;SDS011;69991;51.760;19.528;2024-03-08T03:01:07;23.40;;;10.00;;
80637;SDS011;69991;51.760;19.528;2024-03-08T03:03:36;23.50;;;10.20;;
80637;SDS011;69991;51.760;19.528;2024-03-08T03:06:05;21.10;;;9.20;;
80637;SDS011;69991;51.760;19.528;2024-03-08T03:08:36;21.90;;;10.20;;
80637;SDS011;69991;51.760;19.528;2024-03-08T03:11:05;21.30;;;10.10;;
80637;SDS011;69991;51.760;19.528;2024-03-08T03:13:34;20.90;;;9.60;;
80637;SDS011;69991;51.760;19.528;2024-03-08T03:16:03;21.80;;;9.50;;
80637;SDS011;69991;51.760;19.528;2024-03-08T03:18:32;19.10;;;8.40;;
80637;SDS011;69991;51.760;19.528;2024-03-08T03:21:02;20.30;;;9.50;;
80637;SDS011;69991;51.760;19.528;2024-03-08T03:23:36;19.00;;;8.40;;
80637;SDS011;69991;51.760;19.528;2024-03-08T03:26:06;16.20;;;7.80;;
80637;SDS011;69991;51.760;19.528;2024-03-08T03:28:36;17.60;;;7.50;;
80637;SDS011;69991;51.760;19.528;2024-03-08T03:31:08;19.70;;;7.60;;
80637;SDS011;69991;51.760;19.528;2024-03-08T03:33:43;19.50;;;7.90;;
80637;SDS011;69991;51.760;19.528;2024-03-08T03:36:12;20.50;;;8.00;;
80637;SDS011;69991;51.760;19.528;2024-03-08T03:38:43;17.00;;;7.70;;
80637;SDS011;69991;51.760;19.528;2024-03-08T03:41:12;22.60;;;10.80;;
80637;SDS011;69991;51.760;19.528;2024-03-08T03:43:43;29.80;;;12.40;;
80637;SDS011;69991;51.760;19.528;2024-03-08T03:46:12;26.60;;;11.20;;
80637;SDS011;69991;51.760;19.528;2024-03-08T03:48:41;22.30;;;9.90;;
80637;SDS011;69991;51.760;19.528;2024-03-08T03:51:11;23.40;;;9.90;;
80637;SDS011;69991;51.760;19.528;2024-03-08T03:53:41;20.10;;;9.40;;
80637;SDS011;69991;51.760;19.528;2024-03-08T03:56:10;20.40;;;9.00;;
80637;SDS011;69991;51.760;19.528;2024-03-08T03:58:39;20.10;;;8.70;;
80637;SDS011;69991;51.760;19.528;2024-03-08T04:01:09;16.40;;;7.70;;
80637;SDS011;69991;51.760;19.528;2024-03-08T04:03:40;18.10;;;8.10;;
80637;SDS011;69991;51.760;19.528;2024-03-08T04:06:12;17.70;;;7.00;;
80637;SDS011;69991;51.760;19.528;2024-03-08T04:08:42;17.10;;;7.70;;
80637;SDS011;69991;51.760;19.528;2024-03-08T04:11:11;17.20;;;7.40;;
80637;SDS011;69991;51.760;19.528;2024-03-08T04:13:40;18.10;;;7.60;;
80637;SDS011;69991;51.760;19.528;2024-03-08T04:16:09;16.60;;;6.90;;
80637;SDS011;69991;51.760;19.528;2024-03-08T04:18:40;15.30;;;6.40;;
80637;SDS011;69991;51.760;19.528;2024-03-08T04:21:09;19.70;;;7.60;;
80637;SDS011;69991;51.760;19.528;2024-03-08T04:23:38;15.70;;;6.90;;
80637;SDS011;69991;51.760;19.528;2024-03-08T04:26:08;14.70;;;6.20;;
80637;SDS011;69991;51.760;19.528;2024-03-08T04:28:37;14.60;;;6.30;;
80637;SDS011;69991;51.760;19.528;2024-03-08T04:31:08;14.00;;;6.60;;
80637;SDS011;69991;51.760;19.528;2024-03-08T04:33:37;21.80;;;9.60;;
80637;SDS011;69991;51.760;19.528;2024-03-08T04:36:07;24.00;;;11.60;;
80637;SDS011;69991;51.760;19.528;2024-03-08T04:38:36;22.70;;;11.20;;
80637;SDS011;69991;51.760;19.528;2024-03-08T04:41:09;20.70;;;9.40;;
80637;SDS011;69991;51.760;19.528;2024-03-08T04:43:38;19.50;;;9.20;;
80637;SDS011;69991;51.760;19.528;2024-03-08T04:46:07;20.30;;;9.00;;
80637;SDS011;69991;51.760;19.528;2024-03-08T04:48:39;21.70;;;8.70;;
80637;SDS011;69991;51.760;19.528;2024-03-08T04:51:11;23.50;;;9.30;;
80637;SDS011;69991;51.760;19.528;2024-03-08T04:53:41;21.40;;;8.30;;
80637;SDS011;69991;51.760;19.528;2024-03-08T04:56:10;17.80;;;7.60;;
80637;SDS011;69991;51.760;19.528;2024-03-08T04:58:39;17.70;;;8.20;;
80637;SDS011;69991;51.760;19.528;2024-03-08T05:01:08;19.70;;;7.50;;
80637;SDS011;69991;51.760;19.528;2024-03-08T05:03:39;18.00;;;8.00;;
80637;SDS011;69991;51.760;19.528;2024-03-08T05:06:08;16.10;;;7.30;;
80637;SDS011;69991;51.760;19.528;2024-03-08T05:08:37;16.70;;;7.40;;
80637;SDS011;69991;51.760;19.528;2024-03-08T05:11:07;18.40;;;7.50;;
80637;SDS011;69991;51.760;19.528;2024-03-08T05:13:36;16.90;;;7.40;;
80637;SDS011;69991;51.760;19.528;2024-03-08T05:16:06;16.40;;;7.60;;
80637;SDS011;69991;51.760;19.528;2024-03-08T05:18:36;15.80;;;6.70;;
80637;SDS011;69991;51.760;19.528;2024-03-08T05:21:05;14.70;;;6.30;;
80637;SDS011;69991;51.760;19.528;2024-03-08T05:23:34;19.40;;;7.50;;
80637;SDS011;69991;51.760;19.528;2024-03-08T05:26:03;27.70;;;10.80;;
80637;SDS011;69991;51.760;19.528;2024-03-08T05:28:35;25.60;;;10.80;;
80637;SDS011;69991;51.760;19.528;2024-03-08T05:31:03;23.40;;;10.00;;
80637;SDS011;69991;51.760;19.528;2024-03-08T05:33:32;19.10;;;9.00;;
80637;SDS011;69991;51.760;19.528;2024-03-08T05:36:03;22.10;;;9.20;;
80637;SDS011;69991;51.760;19.528;2024-03-08T05:38:33;18.70;;;8.70;;
80637;SDS011;69991;51.760;19.528;2024-03-08T05:41:02;20.00;;;8.20;;
80637;SDS011;69991;51.760;19.528;2024-03-08T05:43:31;20.50;;;8.30;;
80637;SDS011;69991;51.760;19.528;2024-03-08T05:46:00;18.30;;;8.50;;
80637;SDS011;69991;51.760;19.528;2024-03-08T05:48:29;16.70;;;7.50;;
80637;SDS011;69991;51.760;19.528;2024-03-08T05:50:59;21.80;;;9.00;;
80637;SDS011;69991;51.760;19.528;2024-03-08T05:53:29;22.90;;;9.00;;
80637;SDS011;69991;51.760;19.528;2024-03-08T05:56:01;23.60;;;9.20;;
80637;SDS011;69991;51.760;19.528;2024-03-08T05:58:30;22.90;;;9.30;;
80637;SDS011;69991;51.760;19.528;2024-03-08T06:01:00;22.20;;;9.30;;
80637;SDS011;69991;51.760;19.528;2024-03-08T06:03:29;19.40;;;8.90;;
80637;SDS011;69991;51.760;19.528;2024-03-08T06:05:59;19.20;;;8.80;;
80637;SDS011;69991;51.760;19.528;2024-03-08T06:08:28;19.40;;;8.40;;
80637;SDS011;69991;51.760;19.528;2024-03-08T06:10:58;18.40;;;9.30;;
80637;SDS011;69991;51.760;19.528;2024-03-08T06:13:29;19.50;;;8.70;;
80637;SDS011;69991;51.760;19.528;2024-03-08T06:16:00;17.90;;;8.60;;
80637;SDS011;69991;51.760;19.528;2024-03-08T06:18:33;19.60;;;8.40;;
80637;SDS011;69991;51.760;19.528;2024-03-08T06:21:05;15.50;;;7.20;;
80637;SDS011;69991;51.760;19.528;2024-03-08T06:23:34;19.60;;;7.90;;
80637;SDS011;69991;51.760;19.528;2024-03-08T06:26:07;17.10;;;8.30;;
80637;SDS011;69991;51.760;19.528;2024-03-08T06:28:36;15.90;;;7.40;;
80637;SDS011;69991;51.760;19.528;2024-03-08T06:31:05;15.20;;;7.60;;
80637;SDS011;69991;51.760;19.528;2024-03-08T06:33:35;16.60;;;7.20;;
80637;SDS011;69991;51.760;19.528;2024-03-08T06:36:05;14.20;;;7.30;;
80637;SDS011;69991;51.760;19.528;2024-03-08T06:38:34;14.50;;;6.80;;
80637;SDS011;69991;51.760;19.528;2024-03-08T06:41:03;15.10;;;7.40;;
80637;SDS011;69991;51.760;19.528;2024-03-08T06:43:33;17.30;;;7.00;;
80637;SDS011;69991;51.760;19.528;2024-03-08T06:46:03;14.70;;;7.90;;
80637;SDS011;69991;51.760;19.528;2024-03-08T06:48:32;14.80;;;6.70;;
80637;SDS011;69991;51.760;19.528;2024-03-08T06:51:02;17.80;;;7.80;;
80637;SDS011;69991;51.760;19.528;2024-03-08T06:53:31;19.60;;;8.60;;
80637;SDS011;69991;51.760;19.528;2024-03-08T06:56:01;15.60;;;7.70;;
80637;SDS011;69991;51.760;19.528;2024-03-08T06:58:30;15.30;;;7.10;;
80637;SDS011;69991;51.760;19.528;2024-03-08T07:00:59;13.80;;;6.90;;
80637;SDS011;69991;51.760;19.528;2024-03-08T07:03:33;18.30;;;8.20;;
80637;SDS011;69991;51.760;19.528;2024-03-08T07:06:02;15.40;;;8.00;;
80637;SDS011;69991;51.760;19.528;2024-03-08T07:08:32;16.40;;;8.30;;
80637;SDS011;69991;51.760;19.528;2024-03-08T07:11:01;17.40;;;8.70;;
80637;SDS011;69991;51.760;19.528;2024-03-08T07:13:32;15.70;;;7.80;;
80637;SDS011;69991;51.760;19.528;2024-03-08T07:16:01;17.70;;;8.80;;
80637;SDS011;69991;51.760;19.528;2024-03-08T07:18:30;18.50;;;8.30;;
80637;SDS011;69991;51.760;19.528;2024-03-08T07:20:59;19.20;;;9.30;;
80637;SDS011;69991;51.760;19.528;2024-03-08T07:23:30;18.00;;;8.00;;
80637;SDS011;69991;51.760;19.528;2024-03-08T07:26:15;16.90;;;8.50;;
80637;SDS011;69991;51.760;19.528;2024-03-08T07:28:45;30.10;;;13.30;;
80637;SDS011;69991;51.760;19.528;2024-03-08T07:31:14;19.90;;;9.60;;
80637;SDS011;69991;51.760;19.528;2024-03-08T07:33:43;19.90;;;8.00;;
80637;SDS011;69991;51.760;19.528;2024-03-08T07:36:13;16.10;;;8.40;;
80637;SDS011;69991;51.760;19.528;2024-03-08T07:38:43;20.10;;;9.10;;
80637;SDS011;69991;51.760;19.528;2024-03-08T07:43:45;18.40;;;9.40;;
80637;SDS011;69991;51.760;19.528;2024-03-08T07:46:14;19.20;;;9.90;;
80637;SDS011;69991;51.760;19.528;2024-03-08T07:48:43;16.40;;;8.60;;
80637;SDS011;69991;51.760;19.528;2024-03-08T07:51:17;17.10;;;8.10;;
80637;SDS011;69991;51.760;19.528;2024-03-08T07:53:49;20.20;;;8.20;;
80637;SDS011;69991;51.760;19.528;2024-03-08T07:56:18;17.00;;;7.30;;
80637;SDS011;69991;51.760;19.528;2024-03-08T07:58:48;20.40;;;8.90;;
80637;SDS011;69991;51.760;19.528;2024-03-08T08:01:17;17.00;;;8.40;;
80637;SDS011;69991;51.760;19.528;2024-03-08T08:03:47;15.00;;;7.20;;
80637;SDS011;69991;51.760;19.528;2024-03-08T08:06:17;13.20;;;7.60;;
80637;SDS011;69991;51.760;19.528;2024-03-08T08:08:46;15.00;;;8.40;;
80637;SDS011;69991;51.760;19.528;2024-03-08T08:11:15;17.80;;;8.60;;
80637;SDS011;69991;51.760;19.528;2024-03-08T08:13:44;18.20;;;8.90;;
80637;SDS011;69991;51.760;19.528;2024-03-08T08:16:14;16.30;;;8.40;;
80637;SDS011;69991;51.760;19.528;2024-03-08T08:18:43;15.80;;;8.00;;
80637;SDS011;69991;51.760;19.528;2024-03-08T08:21:13;18.80;;;9.00;;
80637;SDS011;69991;51.760;19.528;2024-03-08T08:23:42;16.20;;;8.80;;
80637;SDS011;69991;51.760;19.528;2024-03-08T08:26:11;17.10;;;8.50;;
80637;SDS011;69991;51.760;19.528;2024-03-08T08:28:40;17.30;;;8.10;;
80637;SDS011;69991;51.760;19.528;2024-03-08T08:31:09;20.80;;;9.50;;
80637;SDS011;69991;51.760;19.528;2024-03-08T08:33:39;17.80;;;8.50;;
80637;SDS011;69991;51.760;19.528;2024-03-08T08:36:08;14.70;;;7.60;;
80637;SDS011;69991;51.760;19.528;2024-03-08T08:38:38;12.80;;;6.80;;
80637;SDS011;69991;51.760;19.528;2024-03-08T08:41:07;15.60;;;7.80;;
80637;SDS011;69991;51.760;19.528;2024-03-08T08:43:36;16.60;;;8.30;;
80637;SDS011;69991;51.760;19.528;2024-03-08T08:46:17;14.40;;;7.10;;
80637;SDS011;69991;51.760;19.528;2024-03-08T08:48:48;16.20;;;8.60;;
80637;SDS011;69991;51.760;19.528;2024-03-08T08:51:17;15.00;;;7.00;;
80637;SDS011;69991;51.760;19.528;2024-03-08T08:53:46;14.60;;;7.90;;
80637;SDS011;69991;51.760;19.528;2024-03-08T08:56:16;15.60;;;8.10;;
80637;SDS011;69991;51.760;19.528;2024-03-08T08:58:47;18.90;;;8.40;;
80637;SDS011;69991;51.760;19.528;2024-03-08T09:01:18;15.30;;;8.20;;
80637;SDS011;69991;51.760;19.528;2024-03-08T09:03:47;19.90;;;8.90;;
80637;SDS011;69991;51.760;19.528;2024-03-08T09:06:16;16.90;;;8.30;;
80637;SDS011;69991;51.760;19.528;2024-03-08T09:08:47;17.10;;;7.70;;
80637;SDS011;69991;51.760;19.528;2024-03-08T09:11:16;15.60;;;7.80;;
80637;SDS011;69991;51.760;19.528;2024-03-08T09:13:45;16.00;;;8.00;;
80637;SDS011;69991;51.760;19.528;2024-03-08T09:16:17;15.90;;;8.50;;
80637;SDS011;69991;51.760;19.528;2024-03-08T09:18:46;17.80;;;7.70;;
80637;SDS011;69991;51.760;19.528;2024-03-08T09:21:16;16.10;;;8.00;;
80637;SDS011;69991;51.760;19.528;2024-03-08T09:23:45;17.20;;;7.80;;
80637;SDS011;69991;51.760;19.528;2024-03-08T09:26:14;17.20;;;8.20;;
80637;SDS011;69991;51.760;19.528;2024-03-08T09:28:57;17.00;;;9.30;;
80637;SDS011;69991;51.760;19.528;2024-03-08T09:31:26;16.20;;;8.40;;
80637;SDS011;69991;51.760;19.528;2024-03-08T09:33:55;21.10;;;9.80;;
80637;SDS011;69991;51.760;19.528;2024-03-08T09:36:24;15.40;;;8.60;;
80637;SDS011;69991;51.760;19.528;2024-03-08T09:38:54;16.80;;;8.40;;
80637;SDS011;69991;51.760;19.528;2024-03-08T09:41:23;18.90;;;9.40;;
80637;SDS011;69991;51.760;19.528;2024-03-08T09:43:51;18.20;;;8.30;;
80637;SDS011;69991;51.760;19.528;2024-03-08T09:46:20;16.50;;;8.10;;
80637;SDS011;69991;51.760;19.528;2024-03-08T09:48:51;17.00;;;8.70;;
80637;SDS011;69991;51.760;19.528;2024-03-08T09:51:21;16.40;;;8.40;;
80637;SDS011;69991;51.760;19.528;2024-03-08T09:53:57;18.40;;;8.30;;
80637;SDS011;69991;51.760;19.528;2024-03-08T09:56:27;15.60;;;8.10;;
80637;SDS011;69991;51.760;19.528;2024-03-08T09:58:56;19.30;;;9.30;;
80637;SDS011;69991;51.760;19.528;2024-03-08T10:01:40;16.30;;;7.80;;
80637;SDS011;69991;51.760;19.528;2024-03-08T10:04:10;19.90;;;9.70;;
80637;SDS011;69991;51.760;19.528;2024-03-08T10:06:40;18.50;;;9.50;;
80637;SDS011;69991;51.760;19.528;2024-03-08T10:09:09;17.30;;;8.60;;
80637;SDS011;69991;51.760;19.528;2024-03-08T10:11:39;16.40;;;7.90;;
80637;SDS011;69991;51.760;19.528;2024-03-08T10:14:09;15.00;;;7.60;;
80637;SDS011;69991;51.760;19.528;2024-03-08T10:16:39;18.50;;;8.90;;
80637;SDS011;69991;51.760;19.528;2024-03-08T10:19:08;18.00;;;8.20;;
80637;SDS011;69991;51.760;19.528;2024-03-08T10:21:48;15.80;;;8.50;;
80637;SDS011;69991;51.760;19.528;2024-03-08T10:24:24;14.80;;;7.80;;
80637;SDS011;69991;51.760;19.528;2024-03-08T10:27:00;20.30;;;10.10;;
80637;SDS011;69991;51.760;19.528;2024-03-08T10:29:36;16.50;;;7.50;;
80637;SDS011;69991;51.760;19.528;2024-03-08T10:32:06;18.40;;;7.90;;
80637;SDS011;69991;51.760;19.528;2024-03-08T10:34:36;15.30;;;7.40;;
80637;SDS011;69991;51.760;19.528;2024-03-08T10:37:05;16.70;;;8.10;;
80637;SDS011;69991;51.760;19.528;2024-03-08T10:39:36;15.90;;;7.60;;
80637;SDS011;69991;51.760;19.528;2024-03-08T10:42:06;17.50;;;7.80;;
80637;SDS011;69991;51.760;19.528;2024-03-08T10:45:00;17.40;;;7.80;;
80637;SDS011;69991;51.760;19.528;2024-03-08T10:47:37;15.80;;;7.60;;
80637;SDS011;69991;51.760;19.528;2024-03-08T10:50:19;17.10;;;7.70;;
80637;SDS011;69991;51.760;19.528;2024-03-08T10:52:53;16.10;;;7.80;;
80637;SDS011;69991;51.760;19.528;2024-03-08T10:55:24;14.30;;;7.10;;
80637;SDS011;69991;51.760;19.528;2024-03-08T10:57:55;14.40;;;7.70;;
80637;SDS011;69991;51.760;19.528;2024-03-08T11:00:24;16.20;;;8.30;;
80637;SDS011;69991;51.760;19.528;2024-03-08T11:05:32;15.80;;;7.30;;
80637;SDS011;69991;51.760;19.528;2024-03-08T11:10:51;13.60;;;6.50;;
80637;SDS011;69991;51.760;19.528;2024-03-08T11:13:39;15.10;;;6.80;;
80637;SDS011;69991;51.760;19.528;2024-03-08T11:16:09;15.00;;;7.50;;
80637;SDS011;69991;51.760;19.528;2024-03-08T11:18:39;12.70;;;6.60;;
80637;SDS011;69991;51.760;19.528;2024-03-08T11:21:08;12.80;;;6.90;;
80637;SDS011;69991;51.760;19.528;2024-03-08T11:23:41;14.30;;;6.80;;
80637;SDS011;69991;51.760;19.528;2024-03-08T11:26:20;15.90;;;7.50;;
80637;SDS011;69991;51.760;19.528;2024-03-08T11:28:50;15.20;;;6.90;;
80637;SDS011;69991;51.760;19.528;2024-03-08T11:31:22;14.40;;;6.70;;
80637;SDS011;69991;51.760;19.528;2024-03-08T11:33:53;11.50;;;6.30;;
80637;SDS011;69991;51.760;19.528;2024-03-08T11:36:23;11.30;;;6.10;;
80637;SDS011;69991;51.760;19.528;2024-03-08T11:38:53;14.70;;;7.10;;
80637;SDS011;69991;51.760;19.528;2024-03-08T11:41:24;13.50;;;6.10;;
80637;SDS011;69991;51.760;19.528;2024-03-08T11:44:03;13.80;;;6.80;;
80637;SDS011;69991;51.760;19.528;2024-03-08T11:46:36;15.20;;;6.90;;
80637;SDS011;69991;51.760;19.528;2024-03-08T11:49:05;14.50;;;7.40;;
80637;SDS011;69991;51.760;19.528;2024-03-08T11:51:34;11.50;;;6.50;;
80637;SDS011;69991;51.760;19.528;2024-03-08T11:54:03;14.40;;;6.60;;
80637;SDS011;69991;51.760;19.528;2024-03-08T11:56:34;13.40;;;7.10;;
80637;SDS011;69991;51.760;19.528;2024-03-08T11:59:04;11.90;;;7.10;;
80637;SDS011;69991;51.760;19.528;2024-03-08T12:01:33;11.90;;;6.30;;
80637;SDS011;69991;51.760;19.528;2024-03-08T12:04:03;13.00;;;7.00;;
80637;SDS011;69991;51.760;19.528;2024-03-08T12:06:38;13.80;;;6.60;;
80637;SDS011;69991;51.760;19.528;2024-03-08T12:09:09;18.60;;;9.60;;
80637;SDS011;69991;51.760;19.528;2024-03-08T12:11:39;14.00;;;7.20;;
80637;SDS011;69991;51.760;19.528;2024-03-08T12:14:08;13.40;;;6.90;;
80637;SDS011;69991;51.760;19.528;2024-03-08T12:16:37;12.10;;;6.80;;
80637;SDS011;69991;51.760;19.528;2024-03-08T12:19:06;12.10;;;5.90;;
80637;SDS011;69991;51.760;19.528;2024-03-08T12:21:35;12.30;;;6.70;;
80637;SDS011;69991;51.760;19.528;2024-03-08T12:24:05;11.50;;;5.90;;
80637;SDS011;69991;51.760;19.528;2024-03-08T12:26:38;12.00;;;6.00;;
80637;SDS011;69991;51.760;19.528;2024-03-08T12:29:14;14.10;;;6.50;;
80637;SDS011;69991;51.760;19.528;2024-03-08T12:31:52;14.20;;;6.70;;
80637;SDS011;69991;51.760;19.528;2024-03-08T12:34:23;14.30;;;6.00;;
80637;SDS011;69991;51.760;19.528;2024-03-08T12:36:52;11.40;;;5.80;;
80637;SDS011;69991;51.760;19.528;2024-03-08T12:39:23;12.20;;;6.90;;
80637;SDS011;69991;51.760;19.528;2024-03-08T12:41:56;12.50;;;6.70;;
80637;SDS011;69991;51.760;19.528;2024-03-08T12:44:29;14.70;;;7.90;;
80637;SDS011;69991;51.760;19.528;2024-03-08T12:46:58;12.10;;;6.60;;
80637;SDS011;69991;51.760;19.528;2024-03-08T12:49:28;12.60;;;6.30;;
80637;SDS011;69991;51.760;19.528;2024-03-08T12:51:59;12.60;;;6.90;;
80637;SDS011;69991;51.760;19.528;2024-03-08T12:54:29;14.70;;;7.20;;
80637;SDS011;69991;51.760;19.528;2024-03-08T12:57:00;13.20;;;7.20;;
80637;SDS011;69991;51.760;19.528;2024-03-08T12:59:29;11.60;;;6.20;;
80637;SDS011;69991;51.760;19.528;2024-03-08T13:01:58;13.50;;;7.60;;
80637;SDS011;69991;51.760;19.528;2024-03-08T13:04:29;11.70;;;6.10;;
80637;SDS011;69991;51.760;19.528;2024-03-08T13:07:00;10.50;;;6.30;;
80637;SDS011;69991;51.760;19.528;2024-03-08T13:09:30;11.30;;;6.10;;
80637;SDS011;69991;51.760;19.528;2024-03-08T13:12:00;11.10;;;6.00;;
80637;SDS011;69991;51.760;19.528;2024-03-08T13:14:29;13.50;;;6.60;;
80637;SDS011;69991;51.760;19.528;2024-03-08T13:17:00;13.20;;;6.10;;
80637;SDS011;69991;51.760;19.528;2024-03-08T13:19:30;12.40;;;6.20;;
80637;SDS011;69991;51.760;19.528;2024-03-08T13:22:00;13.70;;;6.00;;
80637;SDS011;69991;51.760;19.528;2024-03-08T13:24:29;11.10;;;6.40;;
80637;SDS011;69991;51.760;19.528;2024-03-08T13:26:58;13.60;;;6.80;;
80637;SDS011;69991;51.760;19.528;2024-03-08T13:29:28;12.30;;;6.50;;
80637;SDS011;69991;51.760;19.528;2024-03-08T13:31:58;12.40;;;5.70;;
80637;SDS011;69991;51.760;19.528;2024-03-08T13:34:31;18.20;;;9.30;;
80637;SDS011;69991;51.760;19.528;2024-03-08T13:37:04;9.90;;;5.20;;
80637;SDS011;69991;51.760;19.528;2024-03-08T13:39:34;10.80;;;6.10;;
80637;SDS011;69991;51.760;19.528;2024-03-08T13:42:12;9.70;;;5.50;;
80637;SDS011;69991;51.760;19.528;2024-03-08T13:44:45;12.50;;;6.10;;
80637;SDS011;69991;51.760;19.528;2024-03-08T13:47:15;11.40;;;6.10;;
80637;SDS011;69991;51.760;19.528;2024-03-08T13:49:44;10.60;;;5.70;;
80637;SDS011;69991;51.760;19.528;2024-03-08T13:52:14;11.50;;;6.50;;
80637;SDS011;69991;51.760;19.528;2024-03-08T13:54:45;9.90;;;5.50;;
80637;SDS011;69991;51.760;19.528;2024-03-08T13:57:14;11.30;;;6.00;;
80637;SDS011;69991;51.760;19.528;2024-03-08T13:59:43;13.70;;;7.20;;
80637;SDS011;69991;51.760;19.528;2024-03-08T14:02:12;15.30;;;6.70;;
80637;SDS011;69991;51.760;19.528;2024-03-08T14:04:42;13.60;;;6.90;;
80637;SDS011;69991;51.760;19.528;2024-03-08T14:07:11;12.40;;;5.90;;
80637;SDS011;69991;51.760;19.528;2024-03-08T14:09:40;13.90;;;7.00;;
80637;SDS011;69991;51.760;19.528;2024-03-08T14:12:12;14.70;;;7.90;;
80637;SDS011;69991;51.760;19.528;2024-03-08T14:14:44;13.30;;;6.40;;
80637;SDS011;69991;51.760;19.528;2024-03-08T14:17:14;13.50;;;7.00;;
80637;SDS011;69991;51.760;19.528;2024-03-08T14:19:46;13.30;;;7.10;;
80637;SDS011;69991;51.760;19.528;2024-03-08T14:22:15;11.50;;;5.80;;
80637;SDS011;69991;51.760;19.528;2024-03-08T14:24:44;13.80;;;6.50;;
80637;SDS011;69991;51.760;19.528;2024-03-08T14:27:13;13.00;;;5.90;;
80637;SDS011;69991;51.760;19.528;2024-03-08T14:29:44;11.80;;;6.30;;
80637;SDS011;69991;51.760;19.528;2024-03-08T14:32:13;11.70;;;6.20;;
80637;SDS011;69991;51.760;19.528;2024-03-08T14:34:45;12.10;;;6.10;;
80637;SDS011;69991;51.760;19.528;2024-03-08T14:37:15;11.90;;;6.50;;
80637;SDS011;69991;51.760;19.528;2024-03-08T14:39:44;12.20;;;5.50;;
80637;SDS011;69991;51.760;19.528;2024-03-08T14:42:13;15.40;;;7.30;;
80637;SDS011;69991;51.760;19.528;2024-03-08T14:44:42;14.30;;;7.00;;